sensor_id;sensor_type;location;lat;lon;timestamp;temperature;humidity
52669;DHT22;74205;52.786;6.892;2023-11-21T00:01:49;9.00;99.00
52669;DHT22;74205;52.786;6.892;2023-11-21T00:05:10;9.00;99.00
52669;DHT22;74205;52.786;6.892;2023-11-21T00:08:31;9.00;99.10
52669;DHT22;74205;52.786;6.892;2023-11-21T00:11:52;9.00;99.20
52669;DHT22;74205;52.786;6.892;2023-11-21T00:15:12;9.00;99.30
52669;DHT22;74205;52.786;6.892;2023-11-21T00:18:33;8.90;99.40
52669;DHT22;74205;52.786;6.892;2023-11-21T00:21:53;8.90;99.30
52669;DHT22;74205;52.786;6.892;2023-11-21T00:25:14;8.90;99.60
52669;DHT22;74205;52.786;6.892;2023-11-21T00:28:35;8.90;99.70
52669;DHT22;74205;52.786;6.892;2023-11-21T00:31:56;8.90;99.70
52669;DHT22;74205;52.786;6.892;2023-11-21T00:35:17;8.90;99.80
52669;DHT22;74205;52.786;6.892;2023-11-21T00:38:37;8.90;100.00
52669;DHT22;74205;52.786;6.892;2023-11-21T00:42:00;8.90;100.00
52669;DHT22;74205;52.786;6.892;2023-11-21T00:45:20;9.00;99.90
52669;DHT22;74205;52.786;6.892;2023-11-21T00:48:41;9.00;99.80
52669;DHT22;74205;52.786;6.892;2023-11-21T00:52:02;8.90;99.90
52669;DHT22;74205;52.786;6.892;2023-11-21T00:55:23;9.00;99.90
52669;DHT22;74205;52.786;6.892;2023-11-21T00:58:43;9.00;100.00
52669;DHT22;74205;52.786;6.892;2023-11-21T01:02:06;9.00;100.00
52669;DHT22;74205;52.786;6.892;2023-11-21T01:05:30;9.00;100.00
52669;DHT22;74205;52.786;6.892;2023-11-21T01:08:51;9.00;100.00
52669;DHT22;74205;52.786;6.892;2023-11-21T01:12:11;9.00;100.00
52669;DHT22;74205;52.786;6.892;2023-11-21T01:15:32;9.10;100.00
52669;DHT22;74205;52.786;6.892;2023-11-21T01:18:52;9.10;100.00
52669;DHT22;74205;52.786;6.892;2023-11-21T01:22:13;9.10;100.00
52669;DHT22;74205;52.786;6.892;2023-11-21T01:25:34;9.10;100.00
52669;DHT22;74205;52.786;6.892;2023-11-21T01:28:54;9.10;100.00
52669;DHT22;74205;52.786;6.892;2023-11-21T01:32:15;9.20;100.00
52669;DHT22;74205;52.786;6.892;2023-11-21T01:35:35;9.20;100.00
52669;DHT22;74205;52.786;6.892;2023-11-21T01:38:56;9.20;100.00
52669;DHT22;74205;52.786;6.892;2023-11-21T01:42:19;9.20;100.00
52669;DHT22;74205;52.786;6.892;2023-11-21T01:45:40;9.20;100.00
52669;DHT22;74205;52.786;6.892;2023-11-21T01:49:00;9.20;100.00
52669;DHT22;74205;52.786;6.892;2023-11-21T01:52:21;9.20;100.00
52669;DHT22;74205;52.786;6.892;2023-11-21T01:55:42;9.20;100.00
52669;DHT22;74205;52.786;6.892;2023-11-21T01:59:04;9.20;100.00
52669;DHT22;74205;52.786;6.892;2023-11-21T02:02:24;9.20;100.00
52669;DHT22;74205;52.786;6.892;2023-11-21T02:05:45;9.20;100.00
52669;DHT22;74205;52.786;6.892;2023-11-21T02:09:05;9.20;99.90
52669;DHT22;74205;52.786;6.892;2023-11-21T02:12:26;9.20;100.00
52669;DHT22;74205;52.786;6.892;2023-11-21T02:15:47;9.20;99.90
52669;DHT22;74205;52.786;6.892;2023-11-21T02:19:10;9.20;99.90
52669;DHT22;74205;52.786;6.892;2023-11-21T02:22:33;9.20;99.80
52669;DHT22;74205;52.786;6.892;2023-11-21T02:25:57;9.20;99.70
52669;DHT22;74205;52.786;6.892;2023-11-21T02:29:18;9.20;99.80
52669;DHT22;74205;52.786;6.892;2023-11-21T02:32:42;9.20;99.70
52669;DHT22;74205;52.786;6.892;2023-11-21T02:36:04;9.20;99.70
52669;DHT22;74205;52.786;6.892;2023-11-21T02:39:24;9.20;99.70
52669;DHT22;74205;52.786;6.892;2023-11-21T02:42:49;9.20;99.80
52669;DHT22;74205;52.786;6.892;2023-11-21T02:46:12;9.20;99.80
52669;DHT22;74205;52.786;6.892;2023-11-21T02:49:33;9.20;99.90
52669;DHT22;74205;52.786;6.892;2023-11-21T02:52:55;9.20;99.80
52669;DHT22;74205;52.786;6.892;2023-11-21T02:56:18;9.20;99.80
52669;DHT22;74205;52.786;6.892;2023-11-21T02:59:38;9.20;99.80
52669;DHT22;74205;52.786;6.892;2023-11-21T03:02:59;9.20;100.00
52669;DHT22;74205;52.786;6.892;2023-11-21T03:06:19;9.10;100.00
52669;DHT22;74205;52.786;6.892;2023-11-21T03:09:40;9.20;100.00
52669;DHT22;74205;52.786;6.892;2023-11-21T03:13:01;9.20;100.00
52669;DHT22;74205;52.786;6.892;2023-11-21T03:16:21;9.20;100.00
52669;DHT22;74205;52.786;6.892;2023-11-21T03:19:42;9.20;100.00
52669;DHT22;74205;52.786;6.892;2023-11-21T03:23:02;9.20;100.00
52669;DHT22;74205;52.786;6.892;2023-11-21T03:26:23;9.20;100.00
52669;DHT22;74205;52.786;6.892;2023-11-21T03:29:44;9.20;100.00
52669;DHT22;74205;52.786;6.892;2023-11-21T03:33:07;9.30;100.00
52669;DHT22;74205;52.786;6.892;2023-11-21T03:36:28;9.20;100.00
52669;DHT22;74205;52.786;6.892;2023-11-21T03:39:48;9.20;100.00
52669;DHT22;74205;52.786;6.892;2023-11-21T03:43:09;9.20;100.00
52669;DHT22;74205;52.786;6.892;2023-11-21T03:46:30;9.20;100.00
52669;DHT22;74205;52.786;6.892;2023-11-21T03:49:50;9.10;100.00
52669;DHT22;74205;52.786;6.892;2023-11-21T03:53:11;9.20;100.00
52669;DHT22;74205;52.786;6.892;2023-11-21T03:56:31;9.10;100.00
52669;DHT22;74205;52.786;6.892;2023-11-21T03:59:52;9.10;100.00
52669;DHT22;74205;52.786;6.892;2023-11-21T04:03:12;9.10;100.00
52669;DHT22;74205;52.786;6.892;2023-11-21T04:06:33;9.20;100.00
52669;DHT22;74205;52.786;6.892;2023-11-21T04:09:55;9.20;100.00
52669;DHT22;74205;52.786;6.892;2023-11-21T04:13:16;9.20;100.00
52669;DHT22;74205;52.786;6.892;2023-11-21T04:16:36;9.20;100.00
52669;DHT22;74205;52.786;6.892;2023-11-21T04:19:57;9.20;100.00
52669;DHT22;74205;52.786;6.892;2023-11-21T04:23:17;9.20;100.00
52669;DHT22;74205;52.786;6.892;2023-11-21T04:26:38;9.20;100.00
52669;DHT22;74205;52.786;6.892;2023-11-21T04:29:58;9.20;100.00
52669;DHT22;74205;52.786;6.892;2023-11-21T04:33:19;9.20;100.00
52669;DHT22;74205;52.786;6.892;2023-11-21T04:36:40;9.30;100.00
52669;DHT22;74205;52.786;6.892;2023-11-21T04:40:00;9.30;100.00
52669;DHT22;74205;52.786;6.892;2023-11-21T04:43:21;9.20;100.00
52669;DHT22;74205;52.786;6.892;2023-11-21T04:46:42;9.20;100.00
52669;DHT22;74205;52.786;6.892;2023-11-21T04:50:03;9.10;100.00
52669;DHT22;74205;52.786;6.892;2023-11-21T04:53:24;9.10;100.00
52669;DHT22;74205;52.786;6.892;2023-11-21T04:56:44;9.10;100.00
52669;DHT22;74205;52.786;6.892;2023-11-21T05:00:06;9.10;100.00
52669;DHT22;74205;52.786;6.892;2023-11-21T05:03:27;9.10;100.00
52669;DHT22;74205;52.786;6.892;2023-11-21T05:06:50;9.10;100.00
52669;DHT22;74205;52.786;6.892;2023-11-21T05:10:10;9.10;100.00
52669;DHT22;74205;52.786;6.892;2023-11-21T05:13:32;9.10;100.00
52669;DHT22;74205;52.786;6.892;2023-11-21T05:16:54;9.10;100.00
52669;DHT22;74205;52.786;6.892;2023-11-21T05:20:15;9.10;100.00
52669;DHT22;74205;52.786;6.892;2023-11-21T05:23:38;9.20;100.00
52669;DHT22;74205;52.786;6.892;2023-11-21T05:26:58;9.10;100.00
52669;DHT22;74205;52.786;6.892;2023-11-21T05:30:19;9.10;100.00
52669;DHT22;74205;52.786;6.892;2023-11-21T05:33:40;9.10;100.00
52669;DHT22;74205;52.786;6.892;2023-11-21T05:37:01;9.10;100.00
52669;DHT22;74205;52.786;6.892;2023-11-21T05:40:21;9.20;100.00
52669;DHT22;74205;52.786;6.892;2023-11-21T05:43:42;9.20;100.00
52669;DHT22;74205;52.786;6.892;2023-11-21T05:47:03;9.30;100.00
52669;DHT22;74205;52.786;6.892;2023-11-21T05:50:24;9.30;100.00
52669;DHT22;74205;52.786;6.892;2023-11-21T05:53:44;9.40;100.00
52669;DHT22;74205;52.786;6.892;2023-11-21T05:57:05;9.40;100.00
52669;DHT22;74205;52.786;6.892;2023-11-21T06:00:25;9.40;100.00
52669;DHT22;74205;52.786;6.892;2023-11-21T06:03:47;9.50;100.00
52669;DHT22;74205;52.786;6.892;2023-11-21T06:07:08;9.50;100.00
52669;DHT22;74205;52.786;6.892;2023-11-21T06:10:30;9.50;100.00
52669;DHT22;74205;52.786;6.892;2023-11-21T06:13:51;9.50;100.00
52669;DHT22;74205;52.786;6.892;2023-11-21T06:17:13;9.50;100.00
52669;DHT22;74205;52.786;6.892;2023-11-21T06:20:34;9.50;100.00
52669;DHT22;74205;52.786;6.892;2023-11-21T06:23:57;9.40;100.00
52669;DHT22;74205;52.786;6.892;2023-11-21T06:27:18;9.30;100.00
52669;DHT22;74205;52.786;6.892;2023-11-21T06:30:38;9.30;100.00
52669;DHT22;74205;52.786;6.892;2023-11-21T06:33:59;9.30;100.00
52669;DHT22;74205;52.786;6.892;2023-11-21T06:37:20;9.30;100.00
52669;DHT22;74205;52.786;6.892;2023-11-21T06:40:43;9.40;100.00
52669;DHT22;74205;52.786;6.892;2023-11-21T06:44:05;9.40;100.00
52669;DHT22;74205;52.786;6.892;2023-11-21T06:47:26;9.40;100.00
52669;DHT22;74205;52.786;6.892;2023-11-21T06:50:48;9.30;100.00
52669;DHT22;74205;52.786;6.892;2023-11-21T06:54:08;9.30;100.00
52669;DHT22;74205;52.786;6.892;2023-11-21T06:57:29;9.30;100.00
52669;DHT22;74205;52.786;6.892;2023-11-21T07:00:49;9.30;100.00
52669;DHT22;74205;52.786;6.892;2023-11-21T07:04:10;9.30;100.00
52669;DHT22;74205;52.786;6.892;2023-11-21T07:07:31;9.30;100.00
52669;DHT22;74205;52.786;6.892;2023-11-21T07:10:51;9.30;100.00
52669;DHT22;74205;52.786;6.892;2023-11-21T07:14:13;9.30;100.00
52669;DHT22;74205;52.786;6.892;2023-11-21T07:17:33;9.30;100.00
52669;DHT22;74205;52.786;6.892;2023-11-21T07:20:55;9.30;100.00
52669;DHT22;74205;52.786;6.892;2023-11-21T07:24:16;9.30;100.00
52669;DHT22;74205;52.786;6.892;2023-11-21T07:27:36;9.20;100.00
52669;DHT22;74205;52.786;6.892;2023-11-21T07:30:57;9.20;100.00
52669;DHT22;74205;52.786;6.892;2023-11-21T07:34:20;9.20;100.00
52669;DHT22;74205;52.786;6.892;2023-11-21T07:37:41;9.20;100.00
52669;DHT22;74205;52.786;6.892;2023-11-21T07:41:02;9.20;100.00
52669;DHT22;74205;52.786;6.892;2023-11-21T07:44:23;9.20;100.00
52669;DHT22;74205;52.786;6.892;2023-11-21T07:47:43;9.20;100.00
52669;DHT22;74205;52.786;6.892;2023-11-21T07:51:04;9.10;100.00
52669;DHT22;74205;52.786;6.892;2023-11-21T07:54:25;9.20;100.00
52669;DHT22;74205;52.786;6.892;2023-11-21T07:57:45;9.20;100.00
52669;DHT22;74205;52.786;6.892;2023-11-21T08:01:06;9.20;100.00
52669;DHT22;74205;52.786;6.892;2023-11-21T08:04:28;9.20;100.00
52669;DHT22;74205;52.786;6.892;2023-11-21T08:07:48;9.20;100.00
52669;DHT22;74205;52.786;6.892;2023-11-21T08:11:09;9.10;100.00
52669;DHT22;74205;52.786;6.892;2023-11-21T08:14:31;9.10;100.00
52669;DHT22;74205;52.786;6.892;2023-11-21T08:17:51;9.10;100.00
52669;DHT22;74205;52.786;6.892;2023-11-21T08:21:13;9.20;100.00
52669;DHT22;74205;52.786;6.892;2023-11-21T08:24:33;9.20;100.00
52669;DHT22;74205;52.786;6.892;2023-11-21T08:27:54;9.30;100.00
52669;DHT22;74205;52.786;6.892;2023-11-21T08:31:14;9.30;100.00
52669;DHT22;74205;52.786;6.892;2023-11-21T08:34:36;9.30;100.00
52669;DHT22;74205;52.786;6.892;2023-11-21T08:37:56;9.40;100.00
52669;DHT22;74205;52.786;6.892;2023-11-21T08:41:17;9.40;100.00
52669;DHT22;74205;52.786;6.892;2023-11-21T08:44:38;9.40;100.00
52669;DHT22;74205;52.786;6.892;2023-11-21T08:47:59;9.40;100.00
52669;DHT22;74205;52.786;6.892;2023-11-21T08:51:19;9.40;100.00
52669;DHT22;74205;52.786;6.892;2023-11-21T08:54:40;9.40;100.00
52669;DHT22;74205;52.786;6.892;2023-11-21T08:58:01;9.40;100.00
52669;DHT22;74205;52.786;6.892;2023-11-21T09:01:23;9.40;100.00
52669;DHT22;74205;52.786;6.892;2023-11-21T09:04:43;9.30;100.00
52669;DHT22;74205;52.786;6.892;2023-11-21T09:08:04;9.30;100.00
52669;DHT22;74205;52.786;6.892;2023-11-21T09:11:25;9.30;100.00
52669;DHT22;74205;52.786;6.892;2023-11-21T09:14:47;9.20;100.00
52669;DHT22;74205;52.786;6.892;2023-11-21T09:18:08;9.20;100.00
52669;DHT22;74205;52.786;6.892;2023-11-21T09:21:28;9.10;100.00
52669;DHT22;74205;52.786;6.892;2023-11-21T09:24:49;9.10;100.00
52669;DHT22;74205;52.786;6.892;2023-11-21T09:28:09;9.10;100.00
52669;DHT22;74205;52.786;6.892;2023-11-21T09:31:30;9.10;100.00
52669;DHT22;74205;52.786;6.892;2023-11-21T09:34:51;9.00;100.00
52669;DHT22;74205;52.786;6.892;2023-11-21T09:38:12;9.00;100.00
52669;DHT22;74205;52.786;6.892;2023-11-21T09:41:40;9.00;100.00
52669;DHT22;74205;52.786;6.892;2023-11-21T09:45:25;9.00;100.00
52669;DHT22;74205;52.786;6.892;2023-11-21T09:48:51;9.00;100.00
52669;DHT22;74205;52.786;6.892;2023-11-21T09:52:25;9.00;100.00
52669;DHT22;74205;52.786;6.892;2023-11-21T09:55:50;9.00;100.00
52669;DHT22;74205;52.786;6.892;2023-11-21T09:59:14;8.90;100.00
52669;DHT22;74205;52.786;6.892;2023-11-21T10:02:36;8.90;100.00
52669;DHT22;74205;52.786;6.892;2023-11-21T10:05:59;8.90;100.00
52669;DHT22;74205;52.786;6.892;2023-11-21T10:09:21;8.90;100.00
52669;DHT22;74205;52.786;6.892;2023-11-21T10:12:44;8.80;100.00
52669;DHT22;74205;52.786;6.892;2023-11-21T10:16:09;8.80;100.00
52669;DHT22;74205;52.786;6.892;2023-11-21T10:19:35;8.80;100.00
52669;DHT22;74205;52.786;6.892;2023-11-21T10:22:56;8.80;100.00
52669;DHT22;74205;52.786;6.892;2023-11-21T10:26:17;8.80;100.00
52669;DHT22;74205;52.786;6.892;2023-11-21T10:29:41;8.80;100.00
52669;DHT22;74205;52.786;6.892;2023-11-21T10:33:06;8.90;100.00
52669;DHT22;74205;52.786;6.892;2023-11-21T10:36:27;8.90;100.00
52669;DHT22;74205;52.786;6.892;2023-11-21T10:39:48;8.90;100.00
52669;DHT22;74205;52.786;6.892;2023-11-21T10:43:09;8.90;100.00
52669;DHT22;74205;52.786;6.892;2023-11-21T10:46:30;8.90;100.00
52669;DHT22;74205;52.786;6.892;2023-11-21T10:49:51;8.90;99.20
52669;DHT22;74205;52.786;6.892;2023-11-21T10:53:13;9.00;98.70
52669;DHT22;74205;52.786;6.892;2023-11-21T10:56:34;9.10;98.00
52669;DHT22;74205;52.786;6.892;2023-11-21T11:00:01;9.10;96.80
52669;DHT22;74205;52.786;6.892;2023-11-21T11:03:24;9.10;97.00
52669;DHT22;74205;52.786;6.892;2023-11-21T11:06:47;9.10;96.60
52669;DHT22;74205;52.786;6.892;2023-11-21T11:10:11;9.10;95.50
52669;DHT22;74205;52.786;6.892;2023-11-21T11:13:35;9.10;94.50
52669;DHT22;74205;52.786;6.892;2023-11-21T11:16:57;9.10;94.40
52669;DHT22;74205;52.786;6.892;2023-11-21T11:20:20;9.10;94.50
52669;DHT22;74205;52.786;6.892;2023-11-21T11:23:55;9.10;93.50
52669;DHT22;74205;52.786;6.892;2023-11-21T11:27:39;9.10;94.10
52669;DHT22;74205;52.786;6.892;2023-11-21T11:31:33;9.10;93.60
52669;DHT22;74205;52.786;6.892;2023-11-21T11:35:19;9.00;92.10
52669;DHT22;74205;52.786;6.892;2023-11-21T11:38:47;9.00;92.40
52669;DHT22;74205;52.786;6.892;2023-11-21T11:42:15;8.90;92.00
52669;DHT22;74205;52.786;6.892;2023-11-21T11:45:35;8.90;92.00
52669;DHT22;74205;52.786;6.892;2023-11-21T11:49:03;9.00;90.60
52669;DHT22;74205;52.786;6.892;2023-11-21T11:52:42;9.00;90.10
52669;DHT22;74205;52.786;6.892;2023-11-21T11:56:26;9.10;90.70
52669;DHT22;74205;52.786;6.892;2023-11-21T12:03:26;9.20;88.40
52669;DHT22;74205;52.786;6.892;2023-11-21T12:06:46;9.30;89.30
52669;DHT22;74205;52.786;6.892;2023-11-21T12:10:07;9.30;88.90
52669;DHT22;74205;52.786;6.892;2023-11-21T12:13:28;9.40;89.40
52669;DHT22;74205;52.786;6.892;2023-11-21T12:16:49;9.40;88.50
52669;DHT22;74205;52.786;6.892;2023-11-21T12:20:11;9.30;88.60
52669;DHT22;74205;52.786;6.892;2023-11-21T12:23:34;9.30;88.50
52669;DHT22;74205;52.786;6.892;2023-11-21T12:26:55;9.30;86.90
52669;DHT22;74205;52.786;6.892;2023-11-21T12:30:17;9.30;87.10
52669;DHT22;74205;52.786;6.892;2023-11-21T12:33:38;9.30;87.00
52669;DHT22;74205;52.786;6.892;2023-11-21T12:36:59;9.30;87.80
52669;DHT22;74205;52.786;6.892;2023-11-21T12:40:20;9.30;88.10
52669;DHT22;74205;52.786;6.892;2023-11-21T12:43:43;9.30;88.10
52669;DHT22;74205;52.786;6.892;2023-11-21T12:47:04;9.20;86.20
52669;DHT22;74205;52.786;6.892;2023-11-21T12:50:27;9.20;87.10
52669;DHT22;74205;52.786;6.892;2023-11-21T12:53:54;9.20;87.70
52669;DHT22;74205;52.786;6.892;2023-11-21T12:57:15;9.30;87.30
52669;DHT22;74205;52.786;6.892;2023-11-21T13:00:41;9.30;87.10
52669;DHT22;74205;52.786;6.892;2023-11-21T13:04:02;9.20;86.90
52669;DHT22;74205;52.786;6.892;2023-11-21T13:07:25;9.20;86.80
52669;DHT22;74205;52.786;6.892;2023-11-21T13:10:49;9.20;86.70
52669;DHT22;74205;52.786;6.892;2023-11-21T13:14:10;9.20;86.30
52669;DHT22;74205;52.786;6.892;2023-11-21T13:17:31;9.10;86.10
52669;DHT22;74205;52.786;6.892;2023-11-21T13:20:53;9.20;86.70
52669;DHT22;74205;52.786;6.892;2023-11-21T13:24:15;9.20;86.30
52669;DHT22;74205;52.786;6.892;2023-11-21T13:27:37;9.20;85.80
52669;DHT22;74205;52.786;6.892;2023-11-21T13:30:57;9.20;86.00
52669;DHT22;74205;52.786;6.892;2023-11-21T13:34:23;9.20;85.80
52669;DHT22;74205;52.786;6.892;2023-11-21T13:37:50;9.30;85.10
52669;DHT22;74205;52.786;6.892;2023-11-21T13:41:15;9.20;84.80
52669;DHT22;74205;52.786;6.892;2023-11-21T13:44:38;9.20;84.70
52669;DHT22;74205;52.786;6.892;2023-11-21T13:48:04;9.20;85.20
52669;DHT22;74205;52.786;6.892;2023-11-21T13:51:27;9.10;84.80
52669;DHT22;74205;52.786;6.892;2023-11-21T13:54:59;9.00;84.50
52669;DHT22;74205;52.786;6.892;2023-11-21T13:58:26;8.90;85.20
52669;DHT22;74205;52.786;6.892;2023-11-21T14:02:16;9.00;85.40
52669;DHT22;74205;52.786;6.892;2023-11-21T14:05:40;8.90;85.50
52669;DHT22;74205;52.786;6.892;2023-11-21T14:09:03;9.00;85.70
52669;DHT22;74205;52.786;6.892;2023-11-21T14:12:27;9.00;85.90
52669;DHT22;74205;52.786;6.892;2023-11-21T14:15:49;9.10;85.70
52669;DHT22;74205;52.786;6.892;2023-11-21T14:19:12;9.20;86.00
52669;DHT22;74205;52.786;6.892;2023-11-21T14:22:36;9.20;84.90
52669;DHT22;74205;52.786;6.892;2023-11-21T14:25:56;9.20;84.40
52669;DHT22;74205;52.786;6.892;2023-11-21T14:29:19;9.20;84.50
52669;DHT22;74205;52.786;6.892;2023-11-21T14:32:43;9.10;84.70
52669;DHT22;74205;52.786;6.892;2023-11-21T14:36:04;9.20;85.00
52669;DHT22;74205;52.786;6.892;2023-11-21T14:39:25;9.10;85.10
52669;DHT22;74205;52.786;6.892;2023-11-21T14:42:49;9.10;85.40
52669;DHT22;74205;52.786;6.892;2023-11-21T14:46:09;9.10;85.50
52669;DHT22;74205;52.786;6.892;2023-11-21T14:49:34;9.10;85.60
52669;DHT22;74205;52.786;6.892;2023-11-21T14:53:12;9.10;85.80
52669;DHT22;74205;52.786;6.892;2023-11-21T14:56:33;9.10;85.20
52669;DHT22;74205;52.786;6.892;2023-11-21T14:59:55;9.10;85.80
52669;DHT22;74205;52.786;6.892;2023-11-21T15:03:18;9.10;85.90
52669;DHT22;74205;52.786;6.892;2023-11-21T15:06:54;9.10;85.80
52669;DHT22;74205;52.786;6.892;2023-11-21T15:10:17;9.00;85.70
52669;DHT22;74205;52.786;6.892;2023-11-21T15:13:41;9.00;85.70
52669;DHT22;74205;52.786;6.892;2023-11-21T15:17:02;9.00;85.90
52669;DHT22;74205;52.786;6.892;2023-11-21T15:20:23;9.00;85.60
52669;DHT22;74205;52.786;6.892;2023-11-21T15:23:46;9.00;85.40
52669;DHT22;74205;52.786;6.892;2023-11-21T15:27:07;8.90;85.70
52669;DHT22;74205;52.786;6.892;2023-11-21T15:30:28;9.00;85.50
52669;DHT22;74205;52.786;6.892;2023-11-21T15:33:52;8.90;85.00
52669;DHT22;74205;52.786;6.892;2023-11-21T15:37:20;8.80;85.40
52669;DHT22;74205;52.786;6.892;2023-11-21T15:40:40;8.80;85.70
52669;DHT22;74205;52.786;6.892;2023-11-21T15:44:02;8.80;85.60
52669;DHT22;74205;52.786;6.892;2023-11-21T15:47:24;8.70;86.00
52669;DHT22;74205;52.786;6.892;2023-11-21T15:50:45;8.70;86.30
52669;DHT22;74205;52.786;6.892;2023-11-21T15:54:07;8.60;86.30
52669;DHT22;74205;52.786;6.892;2023-11-21T15:57:28;8.50;86.80
52669;DHT22;74205;52.786;6.892;2023-11-21T16:00:51;8.50;87.20
52669;DHT22;74205;52.786;6.892;2023-11-21T16:04:13;8.40;87.50
52669;DHT22;74205;52.786;6.892;2023-11-21T16:07:37;8.40;87.70
52669;DHT22;74205;52.786;6.892;2023-11-21T16:10:59;8.40;87.90
52669;DHT22;74205;52.786;6.892;2023-11-21T16:14:20;8.30;88.10
52669;DHT22;74205;52.786;6.892;2023-11-21T16:17:44;8.30;88.40
52669;DHT22;74205;52.786;6.892;2023-11-21T16:21:05;8.30;88.30
52669;DHT22;74205;52.786;6.892;2023-11-21T16:24:26;8.30;88.30
52669;DHT22;74205;52.786;6.892;2023-11-21T16:27:50;8.20;87.80
52669;DHT22;74205;52.786;6.892;2023-11-21T16:31:11;8.20;87.70
52669;DHT22;74205;52.786;6.892;2023-11-21T16:34:32;8.10;87.70
52669;DHT22;74205;52.786;6.892;2023-11-21T16:37:52;8.00;87.70
52669;DHT22;74205;52.786;6.892;2023-11-21T16:41:13;7.90;88.00
52669;DHT22;74205;52.786;6.892;2023-11-21T16:44:34;7.90;88.30
52669;DHT22;74205;52.786;6.892;2023-11-21T16:47:55;7.90;88.50
52669;DHT22;74205;52.786;6.892;2023-11-21T16:51:19;7.90;88.50
52669;DHT22;74205;52.786;6.892;2023-11-21T16:54:39;7.90;88.60
52669;DHT22;74205;52.786;6.892;2023-11-21T16:58:00;7.80;88.80
52669;DHT22;74205;52.786;6.892;2023-11-21T17:01:20;7.80;88.90
52669;DHT22;74205;52.786;6.892;2023-11-21T17:04:41;7.80;88.80
52669;DHT22;74205;52.786;6.892;2023-11-21T17:08:03;7.80;88.90
52669;DHT22;74205;52.786;6.892;2023-11-21T17:11:25;7.80;88.90
52669;DHT22;74205;52.786;6.892;2023-11-21T17:14:46;7.80;88.90
52669;DHT22;74205;52.786;6.892;2023-11-21T17:18:09;7.80;88.90
52669;DHT22;74205;52.786;6.892;2023-11-21T17:21:30;7.70;88.70
52669;DHT22;74205;52.786;6.892;2023-11-21T17:24:51;7.70;88.70
52669;DHT22;74205;52.786;6.892;2023-11-21T17:28:12;7.70;88.60
52669;DHT22;74205;52.786;6.892;2023-11-21T17:31:34;7.70;88.50
52669;DHT22;74205;52.786;6.892;2023-11-21T17:34:55;7.60;88.30
52669;DHT22;74205;52.786;6.892;2023-11-21T17:38:15;7.60;88.40
52669;DHT22;74205;52.786;6.892;2023-11-21T17:41:38;7.50;88.60
52669;DHT22;74205;52.786;6.892;2023-11-21T17:44:59;7.50;88.70
52669;DHT22;74205;52.786;6.892;2023-11-21T17:48:19;7.50;88.80
52669;DHT22;74205;52.786;6.892;2023-11-21T17:51:41;7.50;88.80
52669;DHT22;74205;52.786;6.892;2023-11-21T17:55:02;7.50;88.60
52669;DHT22;74205;52.786;6.892;2023-11-21T17:58:22;7.50;88.50
52669;DHT22;74205;52.786;6.892;2023-11-21T18:01:43;7.50;88.40
52669;DHT22;74205;52.786;6.892;2023-11-21T18:05:04;7.40;88.20
52669;DHT22;74205;52.786;6.892;2023-11-21T18:08:31;7.40;88.40
52669;DHT22;74205;52.786;6.892;2023-11-21T18:11:51;7.30;88.50
52669;DHT22;74205;52.786;6.892;2023-11-21T18:15:12;7.30;88.70
52669;DHT22;74205;52.786;6.892;2023-11-21T18:18:34;7.20;88.80
52669;DHT22;74205;52.786;6.892;2023-11-21T18:21:55;7.20;89.10
52669;DHT22;74205;52.786;6.892;2023-11-21T18:25:16;7.20;89.10
52669;DHT22;74205;52.786;6.892;2023-11-21T18:28:38;7.10;89.20
52669;DHT22;74205;52.786;6.892;2023-11-21T18:32:00;7.00;89.40
52669;DHT22;74205;52.786;6.892;2023-11-21T18:35:21;7.00;89.70
52669;DHT22;74205;52.786;6.892;2023-11-21T18:38:43;7.00;90.00
52669;DHT22;74205;52.786;6.892;2023-11-21T18:42:04;7.00;90.10
52669;DHT22;74205;52.786;6.892;2023-11-21T18:45:24;7.00;90.20
52669;DHT22;74205;52.786;6.892;2023-11-21T18:48:45;7.00;90.20
52669;DHT22;74205;52.786;6.892;2023-11-21T18:52:08;7.00;90.30
52669;DHT22;74205;52.786;6.892;2023-11-21T18:55:29;6.90;90.30
52669;DHT22;74205;52.786;6.892;2023-11-21T18:58:50;6.90;90.50
52669;DHT22;74205;52.786;6.892;2023-11-21T19:02:11;6.80;90.60
52669;DHT22;74205;52.786;6.892;2023-11-21T19:05:35;6.80;90.60
52669;DHT22;74205;52.786;6.892;2023-11-21T19:08:56;6.80;90.60
52669;DHT22;74205;52.786;6.892;2023-11-21T19:12:16;6.90;90.50
52669;DHT22;74205;52.786;6.892;2023-11-21T19:15:37;6.90;90.40
52669;DHT22;74205;52.786;6.892;2023-11-21T19:18:59;6.90;90.50
52669;DHT22;74205;52.786;6.892;2023-11-21T19:22:19;7.00;90.20
52669;DHT22;74205;52.786;6.892;2023-11-21T19:25:40;7.00;90.00
52669;DHT22;74205;52.786;6.892;2023-11-21T19:29:00;7.10;90.00
52669;DHT22;74205;52.786;6.892;2023-11-21T19:32:21;7.10;89.90
52669;DHT22;74205;52.786;6.892;2023-11-21T19:35:43;7.10;89.80
52669;DHT22;74205;52.786;6.892;2023-11-21T19:39:05;7.10;89.60
52669;DHT22;74205;52.786;6.892;2023-11-21T19:42:25;7.10;89.70
52669;DHT22;74205;52.786;6.892;2023-11-21T19:45:46;7.10;89.70
52669;DHT22;74205;52.786;6.892;2023-11-21T19:49:07;7.10;89.70
52669;DHT22;74205;52.786;6.892;2023-11-21T19:52:28;7.00;89.80
52669;DHT22;74205;52.786;6.892;2023-11-21T19:55:49;6.90;90.10
52669;DHT22;74205;52.786;6.892;2023-11-21T19:59:10;6.70;90.60
52669;DHT22;74205;52.786;6.892;2023-11-21T20:02:30;6.70;90.90
52669;DHT22;74205;52.786;6.892;2023-11-21T20:05:51;6.60;91.20
52669;DHT22;74205;52.786;6.892;2023-11-21T20:09:12;6.60;91.30
52669;DHT22;74205;52.786;6.892;2023-11-21T20:12:32;6.70;91.30
52669;DHT22;74205;52.786;6.892;2023-11-21T20:15:53;6.80;91.10
52669;DHT22;74205;52.786;6.892;2023-11-21T20:19:13;6.80;90.90
52669;DHT22;74205;52.786;6.892;2023-11-21T20:22:34;6.80;90.90
52669;DHT22;74205;52.786;6.892;2023-11-21T20:25:56;6.90;91.00
52669;DHT22;74205;52.786;6.892;2023-11-21T20:29:18;6.90;90.90
52669;DHT22;74205;52.786;6.892;2023-11-21T20:32:38;6.90;90.80
52669;DHT22;74205;52.786;6.892;2023-11-21T20:35:59;7.00;90.70
52669;DHT22;74205;52.786;6.892;2023-11-21T20:39:20;7.00;90.50
52669;DHT22;74205;52.786;6.892;2023-11-21T20:42:40;7.00;90.50
52669;DHT22;74205;52.786;6.892;2023-11-21T20:46:03;7.00;90.40
52669;DHT22;74205;52.786;6.892;2023-11-21T20:49:24;7.00;90.30
52669;DHT22;74205;52.786;6.892;2023-11-21T20:52:44;7.00;90.20
52669;DHT22;74205;52.786;6.892;2023-11-21T20:56:05;7.00;90.10
52669;DHT22;74205;52.786;6.892;2023-11-21T20:59:26;6.90;90.10
52669;DHT22;74205;52.786;6.892;2023-11-21T21:02:46;6.90;90.10
52669;DHT22;74205;52.786;6.892;2023-11-21T21:06:10;6.90;90.10
52669;DHT22;74205;52.786;6.892;2023-11-21T21:09:30;6.90;90.20
52669;DHT22;74205;52.786;6.892;2023-11-21T21:12:51;6.90;90.20
52669;DHT22;74205;52.786;6.892;2023-11-21T21:16:12;6.80;90.20
52669;DHT22;74205;52.786;6.892;2023-11-21T21:19:33;6.80;90.20
52669;DHT22;74205;52.786;6.892;2023-11-21T21:22:54;6.80;90.20
52669;DHT22;74205;52.786;6.892;2023-11-21T21:26:17;6.70;90.30
52669;DHT22;74205;52.786;6.892;2023-11-21T21:29:40;6.60;90.40
52669;DHT22;74205;52.786;6.892;2023-11-21T21:33:00;6.60;90.50